Time,TemperatureF,DewpointF,PressureIn,WindDirection,WindDirectionDegrees,WindSpeedMPH,WindSpeedGustMPH,Humidity,HourlyPrecipIn,Conditions,Clouds,dailyrainin,SolarRadiationWatts/m^2,SoftwareType,DateUTC
2013-02-09 00:02:00,-2.0,-8.0,-100.00,SSE,152,0.0,0.0,76,0.00,,,0.00,1.000000,,2013-02-09 09:02:00,
2013-02-09 00:11:00,-2.0,-8.0,-100.00,SSE,152,0.0,0.0,76,0.00,,,0.00,1.000000,,2013-02-09 09:11:00,
2013-02-09 00:21:00,-2.0,-8.0,-100.00,SSE,152,0.0,0.0,76,0.00,,,0.00,1.000000,,2013-02-09 09:21:00,
2013-02-09 00:52:00,-2.0,-8.0,-100.00,SE,136,0.0,0.0,75,0.00,,,0.00,1.000000,,2013-02-09 09:52:00,
2013-02-09 01:01:00,-2.0,-8.0,-100.00,SE,136,0.0,0.0,75,0.00,,,0.00,1.000000,,2013-02-09 10:01:00,
2013-02-09 01:11:00,-2.0,-8.0,-100.00,SE,136,0.0,0.0,75,0.00,,,0.00,1.000000,,2013-02-09 10:11:00,
2013-02-09 01:21:00,-2.0,-8.0,-100.00,SE,136,0.0,0.0,75,0.00,,,0.00,1.000000,,2013-02-09 10:21:00,
2013-02-09 01:52:00,-3.0,-9.0,-100.00,SSE,147,0.0,0.0,75,0.00,,,0.00,1.000000,,2013-02-09 10:52:00,
2013-02-09 02:01:00,-3.0,-9.0,-100.00,SSE,147,0.0,0.0,75,0.00,,,0.00,1.000000,,2013-02-09 11:01:00,
2013-02-09 02:11:00,-3.0,-9.0,-100.00,SSE,147,0.0,0.0,75,0.00,,,0.00,1.000000,,2013-02-09 11:11:00,
2013-02-09 02:21:00,-3.0,-9.0,-100.00,SSE,147,0.0,0.0,75,0.00,,,0.00,1.000000,,2013-02-09 11:21:00,
2013-02-09 02:52:00,-4.0,-10.0,-100.00,SSE,167,1.0,1.0,74,0.00,,,0.00,1.000000,,2013-02-09 11:52:00,
2013-02-09 03:02:00,-4.0,-10.0,-100.00,SSE,167,1.0,1.0,74,0.00,,,0.00,1.000000,,2013-02-09 12:02:00,
2013-02-09 03:52:00,-1.0,-6.0,-100.00,SE,137,1.0,1.0,77,0.00,,,0.00,1.000000,,2013-02-09 12:52:00,
2013-02-09 04:02:00,-1.0,-6.0,-100.00,SE,137,1.0,1.0,77,0.00,,,0.00,1.000000,,2013-02-09 13:02:00,
2013-02-09 04:11:00,-1.0,-6.0,-100.00,SE,137,1.0,1.0,77,0.00,,,0.00,1.000000,,2013-02-09 13:11:00,
2013-02-09 04:21:00,-1.0,-6.0,-100.00,SE,137,1.0,1.0,77,0.00,,,0.00,1.000000,,2013-02-09 13:21:00,
2013-02-09 04:52:00,-5.0,-12.0,-100.00,SE,146,0.0,1.0,71,0.00,,,0.00,1.000000,,2013-02-09 13:52:00,
2013-02-09 05:01:00,-5.0,-12.0,-100.00,SE,146,0.0,1.0,71,0.00,,,0.00,1.000000,,2013-02-09 14:01:00,
2013-02-09 05:52:00,-2.0,-7.0,-100.00,SE,135,2.0,3.0,77,0.00,,,0.00,1.000000,,2013-02-09 14:52:00,
2013-02-09 06:01:00,-2.0,-7.0,-100.00,SE,135,2.0,3.0,77,0.00,,,0.00,1.000000,,2013-02-09 15:01:00,
2013-02-09 06:11:00,-2.0,-7.0,-100.00,SE,135,2.0,3.0,77,0.00,,,0.00,1.000000,,2013-02-09 15:11:00,
2013-02-09 06:21:00,-2.0,-7.0,-100.00,SE,135,2.0,3.0,77,0.00,,,0.00,1.000000,,2013-02-09 15:21:00,
2013-02-09 06:52:00,-5.0,-12.0,-100.00,South,189,0.0,3.0,72,0.00,,,0.00,1.000000,,2013-02-09 15:52:00,
2013-02-09 07:01:00,-5.0,-12.0,-100.00,South,189,0.0,3.0,72,0.00,,,0.00,1.000000,,2013-02-09 16:01:00,
2013-02-09 07:52:00,1.0,-4.0,-100.00,SE,142,1.0,3.0,77,0.00,,,0.00,1.000000,,2013-02-09 16:52:00,
2013-02-09 08:01:00,1.0,-4.0,-100.00,SE,142,1.0,3.0,77,0.00,,,0.00,1.000000,,2013-02-09 17:01:00,
2013-02-09 08:11:00,1.0,-4.0,-100.00,SE,142,1.0,3.0,77,0.00,,,0.00,1.000000,,2013-02-09 17:11:00,
2013-02-09 08:21:00,1.0,-4.0,-100.00,SE,142,1.0,3.0,77,0.00,,,0.00,1.000000,,2013-02-09 17:21:00,
2013-02-09 08:52:00,2.0,-3.0,-100.00,South,175,0.0,3.0,78,0.00,,,0.00,1.000000,,2013-02-09 17:52:00,
2013-02-09 09:01:00,2.0,-3.0,-100.00,South,175,0.0,3.0,78,0.00,,,0.00,1.000000,,2013-02-09 18:01:00,
2013-02-09 09:11:00,2.0,-3.0,-100.00,South,175,0.0,3.0,78,0.00,,,0.00,1.000000,,2013-02-09 18:11:00,
2013-02-09 09:23:00,2.0,-3.0,-100.00,South,175,0.0,3.0,78,0.00,,,0.00,1.000000,,2013-02-09 18:23:00,
2013-02-09 09:52:00,6.0,1.0,-100.00,ESE,122,1.0,1.0,80,-99.99,,,0.00,1.000000,,2013-02-09 18:52:00,
2013-02-09 10:01:00,6.0,1.0,-100.00,ESE,122,1.0,1.0,80,-99.99,,,0.00,1.000000,,2013-02-09 19:01:00,
2013-02-09 10:11:00,6.0,1.0,-100.00,ESE,122,1.0,1.0,80,-99.99,,,0.00,1.000000,,2013-02-09 19:11:00,
2013-02-09 10:22:00,6.0,1.0,-100.00,ESE,122,1.0,1.0,80,-99.99,,,0.00,1.000000,,2013-02-09 19:22:00,
2013-02-09 10:52:00,10.0,6.0,-100.00,South,169,0.0,1.0,82,-99.99,,,0.00,2.000000,,2013-02-09 19:52:00,
2013-02-09 11:01:00,10.0,6.0,-100.00,South,169,0.0,1.0,82,-99.99,,,0.00,2.000000,,2013-02-09 20:01:00,
2013-02-09 11:52:00,16.0,12.0,-100.00,SSE,156,1.0,3.0,84,-99.99,,,0.00,11.000000,,2013-02-09 20:52:00,
2013-02-09 12:01:00,16.0,12.0,-100.00,SSE,156,1.0,3.0,84,-99.99,,,0.00,11.000000,,2013-02-09 21:01:00,
2013-02-09 12:11:00,16.0,12.0,-100.00,SSE,156,1.0,3.0,84,-99.99,,,0.00,11.000000,,2013-02-09 21:11:00,
2013-02-09 12:21:00,16.0,12.0,-100.00,SSE,156,1.0,3.0,84,-99.99,,,0.00,11.000000,,2013-02-09 21:21:00,
2013-02-09 12:52:00,25.0,22.0,-100.00,SE,132,2.0,4.0,89,-99.99,,,0.00,16.000000,,2013-02-09 21:52:00,
2013-02-09 13:01:00,25.0,22.0,-100.00,SE,132,2.0,4.0,89,-99.99,,,0.00,16.000000,,2013-02-09 22:01:00,
2013-02-09 13:11:00,25.0,22.0,-100.00,SE,132,2.0,4.0,89,-99.99,,,0.00,16.000000,,2013-02-09 22:11:00,
2013-02-09 13:21:00,25.0,22.0,-100.00,SE,132,2.0,4.0,89,-99.99,,,0.00,16.000000,,2013-02-09 22:21:00,
2013-02-09 13:52:00,27.0,24.0,-100.00,NE,46,1.0,6.0,88,0.00,,,0.00,15.000000,,2013-02-09 22:52:00,
2013-02-09 14:01:00,27.0,24.0,-100.00,NE,46,1.0,6.0,88,0.00,,,0.00,15.000000,,2013-02-09 23:01:00,
2013-02-09 14:11:00,27.0,24.0,-100.00,NE,46,1.0,6.0,88,0.00,,,0.00,15.000000,,2013-02-09 23:11:00,
2013-02-09 14:21:00,27.0,24.0,-100.00,NE,46,1.0,6.0,88,0.00,,,0.00,15.000000,,2013-02-09 23:21:00,
2013-02-09 14:52:00,29.0,25.0,-100.00,ESE,102,1.0,7.0,86,0.00,,,0.00,15.000000,,2013-02-09 23:52:00,
2013-02-09 15:02:00,29.0,25.0,-100.00,ESE,102,1.0,7.0,86,0.00,,,0.00,15.000000,,2013-02-10 00:02:00,
2013-02-09 15:11:00,29.0,25.0,-100.00,ESE,102,1.0,7.0,86,0.00,,,0.00,15.000000,,2013-02-10 00:11:00,
2013-02-09 15:21:00,29.0,25.0,-100.00,ESE,102,1.0,7.0,86,0.00,,,0.00,15.000000,,2013-02-10 00:21:00,
2013-02-09 15:52:00,29.0,25.0,-100.00,ENE,58,2.0,7.0,86,0.00,,,0.00,9.000000,,2013-02-10 00:52:00,
2013-02-09 16:01:00,29.0,25.0,-100.00,ENE,58,2.0,7.0,86,0.00,,,0.00,9.000000,,2013-02-10 01:01:00,
2013-02-09 16:11:00,29.0,25.0,-100.00,ENE,58,2.0,7.0,86,0.00,,,0.00,9.000000,,2013-02-10 01:11:00,
2013-02-09 16:21:00,29.0,25.0,-100.00,ENE,58,2.0,7.0,86,0.00,,,0.00,9.000000,,2013-02-10 01:21:00,
2013-02-09 16:52:00,29.0,23.0,-100.00,NE,47,2.0,10.0,79,0.00,,,0.00,8.000000,,2013-02-10 01:52:00,
2013-02-09 17:01:00,29.0,23.0,-100.00,NE,47,2.0,10.0,79,0.00,,,0.00,8.000000,,2013-02-10 02:01:00,
2013-02-09 17:11:00,29.0,23.0,-100.00,NE,47,2.0,10.0,79,0.00,,,0.00,8.000000,,2013-02-10 02:11:00,
2013-02-09 17:22:00,29.0,23.0,-100.00,NE,47,2.0,10.0,79,0.00,,,0.00,8.000000,,2013-02-10 02:22:00,
2013-02-09 17:52:00,27.0,23.0,-100.00,East,87,2.0,8.0,85,0.00,,,0.00,3.000000,,2013-02-10 02:52:00,
2013-02-09 18:01:00,27.0,23.0,-100.00,East,87,2.0,8.0,85,0.00,,,0.00,3.000000,,2013-02-10 03:01:00,
2013-02-09 18:11:00,27.0,23.0,-100.00,East,87,2.0,8.0,85,0.00,,,0.00,3.000000,,2013-02-10 03:11:00,
2013-02-09 18:21:00,27.0,23.0,-100.00,East,87,2.0,8.0,85,0.00,,,0.00,3.000000,,2013-02-10 03:21:00,
2013-02-09 18:52:00,25.0,22.0,-100.00,ESE,104,2.0,6.0,89,0.00,,,0.00,1.000000,,2013-02-10 03:52:00,
2013-02-09 19:01:00,25.0,22.0,-100.00,ESE,104,2.0,6.0,89,0.00,,,0.00,1.000000,,2013-02-10 04:01:00,
2013-02-09 19:11:00,25.0,22.0,-100.00,ESE,104,2.0,6.0,89,0.00,,,0.00,1.000000,,2013-02-10 04:11:00,
2013-02-09 19:21:00,25.0,22.0,-100.00,ESE,104,2.0,6.0,89,0.00,,,0.00,1.000000,,2013-02-10 04:21:00,
2013-02-09 19:52:00,25.0,23.0,-100.00,NNE,17,2.0,4.0,92,0.00,,,0.00,1.000000,,2013-02-10 04:52:00,
2013-02-09 20:01:00,25.0,23.0,-100.00,NNE,17,2.0,4.0,92,0.00,,,0.00,1.000000,,2013-02-10 05:01:00,
2013-02-09 20:11:00,25.0,23.0,-100.00,NNE,17,2.0,4.0,92,0.00,,,0.00,1.000000,,2013-02-10 05:11:00,
2013-02-09 20:22:00,25.0,23.0,-100.00,NNE,17,2.0,4.0,92,0.00,,,0.00,1.000000,,2013-02-10 05:22:00,
2013-02-09 20:52:00,25.0,23.0,-100.00,SE,143,2.0,4.0,91,0.00,,,0.00,1.000000,,2013-02-10 05:52:00,
2013-02-09 21:01:00,25.0,23.0,-100.00,SE,143,2.0,4.0,91,0.00,,,0.00,1.000000,,2013-02-10 06:01:00,
2013-02-09 21:11:00,25.0,23.0,-100.00,SE,143,2.0,4.0,91,0.00,,,0.00,1.000000,,2013-02-10 06:11:00,
2013-02-09 21:21:00,25.0,23.0,-100.00,SE,143,2.0,4.0,91,0.00,,,0.00,1.000000,,2013-02-10 06:21:00,
2013-02-09 21:52:00,27.0,24.0,-100.00,NE,39,1.0,7.0,88,0.00,,,0.00,1.000000,,2013-02-10 06:52:00,
2013-02-09 22:01:00,27.0,24.0,-100.00,NE,39,1.0,7.0,88,0.00,,,0.00,1.000000,,2013-02-10 07:01:00,
2013-02-09 22:11:00,27.0,24.0,-100.00,NE,39,1.0,7.0,88,0.00,,,0.00,1.000000,,2013-02-10 07:11:00,
2013-02-09 22:21:00,27.0,24.0,-100.00,NE,39,1.0,7.0,88,0.00,,,0.00,1.000000,,2013-02-10 07:21:00,
2013-02-09 22:52:00,29.0,25.0,-100.00,ESE,117,3.0,9.0,84,0.00,,,0.00,1.000000,,2013-02-10 07:52:00,
2013-02-09 23:01:00,29.0,25.0,-100.00,ESE,117,3.0,9.0,84,0.00,,,0.00,1.000000,,2013-02-10 08:01:00,
2013-02-09 23:11:00,29.0,25.0,-100.00,ESE,117,3.0,9.0,84,0.00,,,0.00,1.000000,,2013-02-10 08:11:00,
2013-02-09 23:21:00,29.0,25.0,-100.00,ESE,117,3.0,9.0,84,0.00,,,0.00,1.000000,,2013-02-10 08:21:00,
2013-02-09 23:52:00,29.0,26.0,-100.00,SE,124,3.0,7.0,88,0.00,,,-99.99,1.000000,,2013-02-10 08:52:00,